sensor_id;sensor_type;location;lat;lon;timestamp;P1;durP1;ratioP1;P2;durP2;ratioP2
42006;SDS011;27696;42.704;23.304;2023-06-22T00:01:58;17.88;;;16.05;;
42006;SDS011;27696;42.704;23.304;2023-06-22T00:04:24;21.73;;;16.85;;
42006;SDS011;27696;42.704;23.304;2023-06-22T00:06:49;25.08;;;16.65;;
42006;SDS011;27696;42.704;23.304;2023-06-22T00:09:14;17.40;;;15.57;;
42006;SDS011;27696;42.704;23.304;2023-06-22T00:11:40;18.33;;;16.38;;
42006;SDS011;27696;42.704;23.304;2023-06-22T00:14:05;25.02;;;14.35;;
42006;SDS011;27696;42.704;23.304;2023-06-22T00:16:34;19.13;;;14.80;;
42006;SDS011;27696;42.704;23.304;2023-06-22T00:18:59;16.55;;;14.32;;
42006;SDS011;27696;42.704;23.304;2023-06-22T00:21:28;18.17;;;14.07;;
42006;SDS011;27696;42.704;23.304;2023-06-22T00:23:54;16.73;;;13.63;;
42006;SDS011;27696;42.704;23.304;2023-06-22T00:26:20;18.63;;;13.50;;
42006;SDS011;27696;42.704;23.304;2023-06-22T00:28:46;21.17;;;14.57;;
42006;SDS011;27696;42.704;23.304;2023-06-22T00:31:12;17.35;;;13.93;;
42006;SDS011;27696;42.704;23.304;2023-06-22T00:33:37;16.05;;;14.07;;
42006;SDS011;27696;42.704;23.304;2023-06-22T00:36:03;17.63;;;14.35;;
42006;SDS011;27696;42.704;23.304;2023-06-22T00:38:28;16.55;;;14.80;;
42006;SDS011;27696;42.704;23.304;2023-06-22T00:40:54;18.15;;;13.90;;
42006;SDS011;27696;42.704;23.304;2023-06-22T00:43:19;16.13;;;14.13;;
42006;SDS011;27696;42.704;23.304;2023-06-22T00:45:45;17.63;;;14.77;;
42006;SDS011;27696;42.704;23.304;2023-06-22T00:48:11;17.52;;;14.27;;
42006;SDS011;27696;42.704;23.304;2023-06-22T00:50:37;18.92;;;14.90;;
42006;SDS011;27696;42.704;23.304;2023-06-22T00:53:03;15.73;;;14.18;;
42006;SDS011;27696;42.704;23.304;2023-06-22T00:55:33;17.35;;;14.98;;
42006;SDS011;27696;42.704;23.304;2023-06-22T00:58:02;16.50;;;14.80;;
42006;SDS011;27696;42.704;23.304;2023-06-22T01:00:30;17.45;;;15.00;;
42006;SDS011;27696;42.704;23.304;2023-06-22T01:02:57;16.55;;;14.80;;
42006;SDS011;27696;42.704;23.304;2023-06-22T01:05:23;16.02;;;14.40;;
42006;SDS011;27696;42.704;23.304;2023-06-22T01:10:27;17.27;;;14.45;;
42006;SDS011;27696;42.704;23.304;2023-06-22T01:12:59;16.80;;;14.98;;
42006;SDS011;27696;42.704;23.304;2023-06-22T01:15:35;15.75;;;14.25;;
42006;SDS011;27696;42.704;23.304;2023-06-22T01:18:04;17.83;;;14.15;;
42006;SDS011;27696;42.704;23.304;2023-06-22T01:20:30;15.35;;;13.75;;
42006;SDS011;27696;42.704;23.304;2023-06-22T01:30:34;15.07;;;13.57;;
42006;SDS011;27696;42.704;23.304;2023-06-22T01:33:00;14.60;;;13.30;;
42006;SDS011;27696;42.704;23.304;2023-06-22T01:35:26;15.00;;;13.55;;
42006;SDS011;27696;42.704;23.304;2023-06-22T01:37:52;14.57;;;12.73;;
42006;SDS011;27696;42.704;23.304;2023-06-22T01:40:17;16.45;;;12.75;;
42006;SDS011;27696;42.704;23.304;2023-06-22T01:42:44;14.25;;;13.05;;
42006;SDS011;27696;42.704;23.304;2023-06-22T01:45:10;15.10;;;13.73;;
42006;SDS011;27696;42.704;23.304;2023-06-22T01:47:36;14.77;;;13.43;;
42006;SDS011;27696;42.704;23.304;2023-06-22T01:50:02;16.98;;;13.82;;
42006;SDS011;27696;42.704;23.304;2023-06-22T01:52:28;15.38;;;13.98;;
42006;SDS011;27696;42.704;23.304;2023-06-22T01:54:53;15.40;;;14.00;;
42006;SDS011;27696;42.704;23.304;2023-06-22T01:57:19;15.27;;;13.73;;
42006;SDS011;27696;42.704;23.304;2023-06-22T01:59:49;16.05;;;14.55;;
42006;SDS011;27696;42.704;23.304;2023-06-22T02:02:21;16.17;;;14.48;;
42006;SDS011;27696;42.704;23.304;2023-06-22T02:04:54;13.05;;;11.75;;
42006;SDS011;27696;42.704;23.304;2023-06-22T02:07:23;12.88;;;11.57;;
42006;SDS011;27696;42.704;23.304;2023-06-22T02:09:49;13.95;;;11.88;;
42006;SDS011;27696;42.704;23.304;2023-06-22T02:12:17;14.48;;;11.15;;
42006;SDS011;27696;42.704;23.304;2023-06-22T02:14:46;12.43;;;11.07;;
42006;SDS011;27696;42.704;23.304;2023-06-22T02:17:12;11.77;;;10.57;;
42006;SDS011;27696;42.704;23.304;2023-06-22T02:19:38;12.38;;;11.38;;
42006;SDS011;27696;42.704;23.304;2023-06-22T02:22:04;11.90;;;10.63;;
42006;SDS011;27696;42.704;23.304;2023-06-22T02:24:30;12.88;;;11.68;;
42006;SDS011;27696;42.704;23.304;2023-06-22T02:27:00;13.85;;;12.50;;
42006;SDS011;27696;42.704;23.304;2023-06-22T02:29:26;13.52;;;12.32;;
42006;SDS011;27696;42.704;23.304;2023-06-22T02:31:52;13.57;;;12.25;;
42006;SDS011;27696;42.704;23.304;2023-06-22T02:34:18;14.32;;;13.02;;
42006;SDS011;27696;42.704;23.304;2023-06-22T02:36:45;12.25;;;11.18;;
42006;SDS011;27696;42.704;23.304;2023-06-22T02:39:16;13.63;;;12.18;;
42006;SDS011;27696;42.704;23.304;2023-06-22T02:41:52;14.07;;;12.02;;
42006;SDS011;27696;42.704;23.304;2023-06-22T02:44:19;13.18;;;11.90;;
42006;SDS011;27696;42.704;23.304;2023-06-22T02:46:45;13.23;;;11.85;;
42006;SDS011;27696;42.704;23.304;2023-06-22T02:49:10;14.00;;;12.43;;
42006;SDS011;27696;42.704;23.304;2023-06-22T02:51:38;13.68;;;12.27;;
42006;SDS011;27696;42.704;23.304;2023-06-22T02:54:04;13.73;;;12.43;;
42006;SDS011;27696;42.704;23.304;2023-06-22T02:56:30;13.48;;;12.07;;
42006;SDS011;27696;42.704;23.304;2023-06-22T02:58:56;13.77;;;12.48;;
42006;SDS011;27696;42.704;23.304;2023-06-22T03:01:26;15.02;;;11.95;;
42006;SDS011;27696;42.704;23.304;2023-06-22T03:03:55;15.30;;;13.90;;
42006;SDS011;27696;42.704;23.304;2023-06-22T03:06:21;15.05;;;12.60;;
42006;SDS011;27696;42.704;23.304;2023-06-22T03:08:57;17.20;;;13.45;;
42006;SDS011;27696;42.704;23.304;2023-06-22T03:11:24;14.05;;;12.75;;
42006;SDS011;27696;42.704;23.304;2023-06-22T03:13:49;16.73;;;12.30;;
42006;SDS011;27696;42.704;23.304;2023-06-22T03:16:17;15.10;;;13.60;;
42006;SDS011;27696;42.704;23.304;2023-06-22T03:18:42;13.68;;;12.57;;
42006;SDS011;27696;42.704;23.304;2023-06-22T03:21:08;14.55;;;12.90;;
42006;SDS011;27696;42.704;23.304;2023-06-22T03:23:33;14.43;;;13.00;;
42006;SDS011;27696;42.704;23.304;2023-06-22T03:25:59;15.32;;;13.43;;
42006;SDS011;27696;42.704;23.304;2023-06-22T03:28:24;14.45;;;12.93;;
42006;SDS011;27696;42.704;23.304;2023-06-22T03:30:50;14.02;;;12.60;;
42006;SDS011;27696;42.704;23.304;2023-06-22T03:33:15;19.17;;;12.77;;
42006;SDS011;27696;42.704;23.304;2023-06-22T03:35:40;17.50;;;13.27;;
42006;SDS011;27696;42.704;23.304;2023-06-22T03:38:06;19.52;;;13.15;;
42006;SDS011;27696;42.704;23.304;2023-06-22T03:40:31;13.65;;;12.25;;
42006;SDS011;27696;42.704;23.304;2023-06-22T03:42:57;13.80;;;12.35;;
42006;SDS011;27696;42.704;23.304;2023-06-22T03:45:22;15.40;;;12.60;;
42006;SDS011;27696;42.704;23.304;2023-06-22T03:47:47;15.93;;;14.32;;
42006;SDS011;27696;42.704;23.304;2023-06-22T03:50:13;14.65;;;13.02;;
42006;SDS011;27696;42.704;23.304;2023-06-22T03:52:39;14.85;;;13.38;;
42006;SDS011;27696;42.704;23.304;2023-06-22T03:55:05;18.52;;;13.20;;
42006;SDS011;27696;42.704;23.304;2023-06-22T03:57:31;20.50;;;17.95;;
42006;SDS011;27696;42.704;23.304;2023-06-22T03:59:57;20.15;;;14.95;;
42006;SDS011;27696;42.704;23.304;2023-06-22T04:02:23;15.93;;;14.23;;
42006;SDS011;27696;42.704;23.304;2023-06-22T04:04:49;15.25;;;13.75;;
42006;SDS011;27696;42.704;23.304;2023-06-22T04:07:14;14.20;;;12.55;;
42006;SDS011;27696;42.704;23.304;2023-06-22T04:09:39;16.73;;;13.77;;
42006;SDS011;27696;42.704;23.304;2023-06-22T04:12:05;14.10;;;12.85;;
42006;SDS011;27696;42.704;23.304;2023-06-22T04:14:31;14.80;;;13.02;;
42006;SDS011;27696;42.704;23.304;2023-06-22T04:16:57;15.70;;;13.23;;
42006;SDS011;27696;42.704;23.304;2023-06-22T04:19:22;14.60;;;12.90;;
42006;SDS011;27696;42.704;23.304;2023-06-22T04:21:48;16.15;;;13.38;;
42006;SDS011;27696;42.704;23.304;2023-06-22T04:24:14;15.57;;;13.52;;
42006;SDS011;27696;42.704;23.304;2023-06-22T04:26:39;15.63;;;14.23;;
42006;SDS011;27696;42.704;23.304;2023-06-22T04:29:06;15.90;;;14.20;;
42006;SDS011;27696;42.704;23.304;2023-06-22T04:31:34;17.63;;;14.70;;
42006;SDS011;27696;42.704;23.304;2023-06-22T04:34:06;16.75;;;14.05;;
42006;SDS011;27696;42.704;23.304;2023-06-22T04:36:36;18.05;;;14.18;;
42006;SDS011;27696;42.704;23.304;2023-06-22T04:39:07;16.13;;;14.15;;
42006;SDS011;27696;42.704;23.304;2023-06-22T04:41:34;16.20;;;14.50;;
42006;SDS011;27696;42.704;23.304;2023-06-22T04:44:07;18.15;;;15.20;;
42006;SDS011;27696;42.704;23.304;2023-06-22T04:46:34;15.85;;;14.18;;
42006;SDS011;27696;42.704;23.304;2023-06-22T04:49:03;16.58;;;15.07;;
42006;SDS011;27696;42.704;23.304;2023-06-22T04:51:34;17.88;;;14.25;;
42006;SDS011;27696;42.704;23.304;2023-06-22T04:54:04;18.52;;;13.85;;
42006;SDS011;27696;42.704;23.304;2023-06-22T04:56:30;16.58;;;14.90;;
42006;SDS011;27696;42.704;23.304;2023-06-22T04:58:56;19.20;;;14.88;;
42006;SDS011;27696;42.704;23.304;2023-06-22T05:01:22;18.63;;;15.48;;
42006;SDS011;27696;42.704;23.304;2023-06-22T05:03:48;16.55;;;14.63;;
42006;SDS011;27696;42.704;23.304;2023-06-22T05:06:14;17.60;;;15.00;;
42006;SDS011;27696;42.704;23.304;2023-06-22T05:08:39;20.23;;;15.15;;
42006;SDS011;27696;42.704;23.304;2023-06-22T05:11:05;17.00;;;15.00;;
42006;SDS011;27696;42.704;23.304;2023-06-22T05:13:31;17.08;;;15.00;;
42006;SDS011;27696;42.704;23.304;2023-06-22T05:15:56;17.92;;;15.65;;
42006;SDS011;27696;42.704;23.304;2023-06-22T05:18:26;19.48;;;15.48;;
42006;SDS011;27696;42.704;23.304;2023-06-22T05:20:54;16.52;;;14.80;;
42006;SDS011;27696;42.704;23.304;2023-06-22T05:23:20;17.02;;;15.40;;
42006;SDS011;27696;42.704;23.304;2023-06-22T05:25:45;18.88;;;15.20;;
42006;SDS011;27696;42.704;23.304;2023-06-22T05:28:11;17.27;;;15.48;;
42006;SDS011;27696;42.704;23.304;2023-06-22T05:30:37;18.77;;;15.93;;
42006;SDS011;27696;42.704;23.304;2023-06-22T05:33:03;17.80;;;16.00;;
42006;SDS011;27696;42.704;23.304;2023-06-22T05:35:28;18.13;;;16.42;;
42006;SDS011;27696;42.704;23.304;2023-06-22T05:37:54;19.13;;;17.13;;
42006;SDS011;27696;42.704;23.304;2023-06-22T05:40:20;20.88;;;16.08;;
42006;SDS011;27696;42.704;23.304;2023-06-22T05:42:46;18.98;;;17.10;;
42006;SDS011;27696;42.704;23.304;2023-06-22T05:45:11;19.60;;;17.02;;
42006;SDS011;27696;42.704;23.304;2023-06-22T05:47:37;20.33;;;15.02;;
42006;SDS011;27696;42.704;23.304;2023-06-22T05:50:02;17.90;;;15.27;;
42006;SDS011;27696;42.704;23.304;2023-06-22T05:52:31;17.65;;;15.52;;
42006;SDS011;27696;42.704;23.304;2023-06-22T05:54:57;18.80;;;15.50;;
42006;SDS011;27696;42.704;23.304;2023-06-22T05:57:23;15.60;;;14.00;;
42006;SDS011;27696;42.704;23.304;2023-06-22T05:59:48;17.00;;;15.20;;
42006;SDS011;27696;42.704;23.304;2023-06-22T06:02:14;20.75;;;16.05;;
42006;SDS011;27696;42.704;23.304;2023-06-22T06:04:39;17.50;;;15.88;;
42006;SDS011;27696;42.704;23.304;2023-06-22T06:07:05;17.13;;;15.52;;
42006;SDS011;27696;42.704;23.304;2023-06-22T06:09:30;20.67;;;16.30;;
42006;SDS011;27696;42.704;23.304;2023-06-22T06:11:56;18.98;;;15.43;;
42006;SDS011;27696;42.704;23.304;2023-06-22T06:14:21;16.70;;;15.27;;
42006;SDS011;27696;42.704;23.304;2023-06-22T06:16:48;17.77;;;15.75;;
42006;SDS011;27696;42.704;23.304;2023-06-22T06:19:13;21.73;;;16.10;;
42006;SDS011;27696;42.704;23.304;2023-06-22T06:21:39;18.55;;;16.70;;
42006;SDS011;27696;42.704;23.304;2023-06-22T06:24:04;19.60;;;17.20;;
42006;SDS011;27696;42.704;23.304;2023-06-22T06:26:30;19.98;;;17.25;;
42006;SDS011;27696;42.704;23.304;2023-06-22T06:29:00;21.08;;;17.95;;
42006;SDS011;27696;42.704;23.304;2023-06-22T06:31:27;18.52;;;16.30;;
42006;SDS011;27696;42.704;23.304;2023-06-22T06:33:53;17.90;;;16.27;;
42006;SDS011;27696;42.704;23.304;2023-06-22T06:36:19;23.40;;;16.58;;
42006;SDS011;27696;42.704;23.304;2023-06-22T06:38:45;23.98;;;17.42;;
42006;SDS011;27696;42.704;23.304;2023-06-22T06:41:12;19.63;;;15.50;;
42006;SDS011;27696;42.704;23.304;2023-06-22T06:43:38;17.10;;;15.15;;
42006;SDS011;27696;42.704;23.304;2023-06-22T06:46:03;16.60;;;14.02;;
42006;SDS011;27696;42.704;23.304;2023-06-22T06:48:29;15.55;;;12.60;;
42006;SDS011;27696;42.704;23.304;2023-06-22T06:50:54;17.33;;;13.57;;
42006;SDS011;27696;42.704;23.304;2023-06-22T06:53:23;14.70;;;13.05;;
42006;SDS011;27696;42.704;23.304;2023-06-22T06:55:48;14.70;;;13.32;;
42006;SDS011;27696;42.704;23.304;2023-06-22T06:58:13;17.30;;;14.15;;
42006;SDS011;27696;42.704;23.304;2023-06-22T07:00:40;16.23;;;13.05;;
42006;SDS011;27696;42.704;23.304;2023-06-22T07:03:05;15.77;;;14.15;;
42006;SDS011;27696;42.704;23.304;2023-06-22T07:05:32;17.08;;;15.07;;
42006;SDS011;27696;42.704;23.304;2023-06-22T07:07:57;21.98;;;14.73;;
42006;SDS011;27696;42.704;23.304;2023-06-22T07:10:22;15.52;;;13.55;;
42006;SDS011;27696;42.704;23.304;2023-06-22T07:12:48;19.10;;;14.25;;
42006;SDS011;27696;42.704;23.304;2023-06-22T07:15:13;16.55;;;13.82;;
42006;SDS011;27696;42.704;23.304;2023-06-22T07:17:39;15.60;;;13.20;;
42006;SDS011;27696;42.704;23.304;2023-06-22T07:20:07;21.42;;;13.07;;
42006;SDS011;27696;42.704;23.304;2023-06-22T07:22:39;20.50;;;13.02;;
42006;SDS011;27696;42.704;23.304;2023-06-22T07:25:09;17.10;;;12.82;;
42006;SDS011;27696;42.704;23.304;2023-06-22T07:27:38;18.52;;;13.70;;
42006;SDS011;27696;42.704;23.304;2023-06-22T07:30:08;19.02;;;13.35;;
42006;SDS011;27696;42.704;23.304;2023-06-22T07:32:33;16.63;;;13.40;;
42006;SDS011;27696;42.704;23.304;2023-06-22T07:35:08;20.80;;;14.13;;
42006;SDS011;27696;42.704;23.304;2023-06-22T07:37:34;19.50;;;13.57;;
42006;SDS011;27696;42.704;23.304;2023-06-22T07:40:00;19.40;;;12.35;;
42006;SDS011;27696;42.704;23.304;2023-06-22T07:42:25;20.85;;;15.00;;
42006;SDS011;27696;42.704;23.304;2023-06-22T07:44:51;15.95;;;13.07;;
42006;SDS011;27696;42.704;23.304;2023-06-22T07:47:16;18.35;;;13.27;;
42006;SDS011;27696;42.704;23.304;2023-06-22T07:49:48;32.95;;;21.92;;
42006;SDS011;27696;42.704;23.304;2023-06-22T07:52:13;18.90;;;13.93;;
42006;SDS011;27696;42.704;23.304;2023-06-22T07:54:38;17.92;;;13.32;;
42006;SDS011;27696;42.704;23.304;2023-06-22T07:57:04;17.42;;;13.43;;
42006;SDS011;27696;42.704;23.304;2023-06-22T07:59:30;19.40;;;13.60;;
42006;SDS011;27696;42.704;23.304;2023-06-22T08:01:55;13.90;;;12.48;;
42006;SDS011;27696;42.704;23.304;2023-06-22T08:04:20;17.60;;;13.60;;
42006;SDS011;27696;42.704;23.304;2023-06-22T08:06:46;23.30;;;13.57;;
42006;SDS011;27696;42.704;23.304;2023-06-22T08:09:11;16.35;;;12.90;;
42006;SDS011;27696;42.704;23.304;2023-06-22T08:11:37;20.55;;;13.48;;
42006;SDS011;27696;42.704;23.304;2023-06-22T08:14:02;29.08;;;18.60;;
42006;SDS011;27696;42.704;23.304;2023-06-22T08:16:28;18.13;;;14.02;;
42006;SDS011;27696;42.704;23.304;2023-06-22T08:18:54;14.57;;;13.07;;
42006;SDS011;27696;42.704;23.304;2023-06-22T08:21:19;16.15;;;12.80;;
42006;SDS011;27696;42.704;23.304;2023-06-22T08:23:45;17.15;;;13.27;;
42006;SDS011;27696;42.704;23.304;2023-06-22T08:26:10;15.38;;;11.63;;
42006;SDS011;27696;42.704;23.304;2023-06-22T08:28:36;14.38;;;11.57;;
42006;SDS011;27696;42.704;23.304;2023-06-22T08:31:01;19.25;;;12.07;;
42006;SDS011;27696;42.704;23.304;2023-06-22T08:33:31;12.95;;;11.73;;
42006;SDS011;27696;42.704;23.304;2023-06-22T08:35:57;12.27;;;11.23;;
42006;SDS011;27696;42.704;23.304;2023-06-22T08:38:23;11.68;;;10.52;;
42006;SDS011;27696;42.704;23.304;2023-06-22T08:40:48;13.07;;;10.63;;
42006;SDS011;27696;42.704;23.304;2023-06-22T08:43:14;12.50;;;11.20;;
42006;SDS011;27696;42.704;23.304;2023-06-22T08:45:42;13.85;;;11.18;;
42006;SDS011;27696;42.704;23.304;2023-06-22T08:48:07;13.00;;;11.68;;
42006;SDS011;27696;42.704;23.304;2023-06-22T08:50:32;13.80;;;11.18;;
42006;SDS011;27696;42.704;23.304;2023-06-22T08:52:58;12.25;;;11.00;;
42006;SDS011;27696;42.704;23.304;2023-06-22T08:55:23;11.73;;;10.63;;
42006;SDS011;27696;42.704;23.304;2023-06-22T08:57:49;12.15;;;10.68;;
42006;SDS011;27696;42.704;23.304;2023-06-22T09:00:14;14.85;;;10.95;;
42006;SDS011;27696;42.704;23.304;2023-06-22T09:02:41;11.80;;;10.68;;
42006;SDS011;27696;42.704;23.304;2023-06-22T09:05:07;11.65;;;10.23;;
42006;SDS011;27696;42.704;23.304;2023-06-22T09:07:33;12.38;;;10.80;;
42006;SDS011;27696;42.704;23.304;2023-06-22T09:09:59;11.38;;;10.23;;
42006;SDS011;27696;42.704;23.304;2023-06-22T09:12:24;13.90;;;10.93;;
42006;SDS011;27696;42.704;23.304;2023-06-22T09:14:52;10.32;;;9.40;;
42006;SDS011;27696;42.704;23.304;2023-06-22T09:17:18;13.32;;;9.30;;
42006;SDS011;27696;42.704;23.304;2023-06-22T09:19:43;9.98;;;8.98;;
42006;SDS011;27696;42.704;23.304;2023-06-22T09:22:08;10.23;;;9.27;;
42006;SDS011;27696;42.704;23.304;2023-06-22T09:24:34;10.45;;;9.40;;
42006;SDS011;27696;42.704;23.304;2023-06-22T09:26:59;10.02;;;9.18;;
42006;SDS011;27696;42.704;23.304;2023-06-22T09:29:25;10.18;;;9.30;;
42006;SDS011;27696;42.704;23.304;2023-06-22T09:31:50;10.27;;;9.40;;
42006;SDS011;27696;42.704;23.304;2023-06-22T09:34:18;9.98;;;9.07;;
42006;SDS011;27696;42.704;23.304;2023-06-22T09:36:45;10.05;;;9.15;;
42006;SDS011;27696;42.704;23.304;2023-06-22T09:39:11;10.25;;;9.25;;
42006;SDS011;27696;42.704;23.304;2023-06-22T09:41:36;10.07;;;9.27;;
42006;SDS011;27696;42.704;23.304;2023-06-22T09:44:02;10.82;;;9.93;;
42006;SDS011;27696;42.704;23.304;2023-06-22T09:46:27;11.35;;;10.23;;
42006;SDS011;27696;42.704;23.304;2023-06-22T09:48:53;9.38;;;8.48;;
42006;SDS011;27696;42.704;23.304;2023-06-22T09:51:19;11.35;;;10.20;;
42006;SDS011;27696;42.704;23.304;2023-06-22T09:53:49;11.07;;;9.98;;
42006;SDS011;27696;42.704;23.304;2023-06-22T09:56:15;9.88;;;8.98;;
42006;SDS011;27696;42.704;23.304;2023-06-22T09:58:41;12.48;;;10.52;;
42006;SDS011;27696;42.704;23.304;2023-06-22T10:01:07;15.45;;;10.73;;
42006;SDS011;27696;42.704;23.304;2023-06-22T10:03:33;13.25;;;11.88;;
42006;SDS011;27696;42.704;23.304;2023-06-22T10:05:58;12.05;;;10.50;;
42006;SDS011;27696;42.704;23.304;2023-06-22T10:08:24;13.27;;;12.00;;
42006;SDS011;27696;42.704;23.304;2023-06-22T10:10:49;11.75;;;10.65;;
42006;SDS011;27696;42.704;23.304;2023-06-22T10:13:15;11.90;;;10.70;;
42006;SDS011;27696;42.704;23.304;2023-06-22T10:15:41;16.17;;;13.35;;
42006;SDS011;27696;42.704;23.304;2023-06-22T10:18:07;19.55;;;17.80;;
42006;SDS011;27696;42.704;23.304;2023-06-22T10:20:33;11.90;;;10.70;;
42006;SDS011;27696;42.704;23.304;2023-06-22T10:22:58;12.73;;;9.57;;
42006;SDS011;27696;42.704;23.304;2023-06-22T10:25:24;11.18;;;10.07;;
42006;SDS011;27696;42.704;23.304;2023-06-22T10:27:49;10.27;;;9.18;;
42006;SDS011;27696;42.704;23.304;2023-06-22T10:30:15;10.80;;;9.77;;
42006;SDS011;27696;42.704;23.304;2023-06-22T10:32:41;11.77;;;10.68;;
42006;SDS011;27696;42.704;23.304;2023-06-22T10:35:10;10.82;;;9.63;;
42006;SDS011;27696;42.704;23.304;2023-06-22T10:37:38;10.23;;;9.43;;
42006;SDS011;27696;42.704;23.304;2023-06-22T10:40:04;10.23;;;9.32;;
42006;SDS011;27696;42.704;23.304;2023-06-22T10:42:30;12.48;;;10.07;;
42006;SDS011;27696;42.704;23.304;2023-06-22T10:44:55;13.10;;;9.52;;
42006;SDS011;27696;42.704;23.304;2023-06-22T10:47:21;10.70;;;9.60;;
42006;SDS011;27696;42.704;23.304;2023-06-22T10:49:46;13.35;;;11.07;;
42006;SDS011;27696;42.704;23.304;2023-06-22T10:52:12;16.27;;;9.90;;
42006;SDS011;27696;42.704;23.304;2023-06-22T10:54:37;10.45;;;9.45;;
42006;SDS011;27696;42.704;23.304;2023-06-22T10:57:03;11.90;;;10.00;;
42006;SDS011;27696;42.704;23.304;2023-06-22T10:59:29;10.68;;;9.73;;
42006;SDS011;27696;42.704;23.304;2023-06-22T11:01:57;10.40;;;9.07;;
42006;SDS011;27696;42.704;23.304;2023-06-22T11:04:23;9.82;;;9.02;;
42006;SDS011;27696;42.704;23.304;2023-06-22T11:06:49;10.68;;;9.77;;
42006;SDS011;27696;42.704;23.304;2023-06-22T11:09:15;11.57;;;10.48;;
42006;SDS011;27696;42.704;23.304;2023-06-22T11:11:45;11.98;;;10.55;;
42006;SDS011;27696;42.704;23.304;2023-06-22T11:14:10;11.55;;;10.65;;
42006;SDS011;27696;42.704;23.304;2023-06-22T11:16:36;11.63;;;10.48;;
42006;SDS011;27696;42.704;23.304;2023-06-22T11:19:01;11.25;;;10.25;;
42006;SDS011;27696;42.704;23.304;2023-06-22T11:21:28;12.27;;;10.63;;
42006;SDS011;27696;42.704;23.304;2023-06-22T11:23:53;10.38;;;9.45;;
42006;SDS011;27696;42.704;23.304;2023-06-22T11:26:19;9.05;;;8.35;;
42006;SDS011;27696;42.704;23.304;2023-06-22T11:28:46;9.93;;;9.02;;
42006;SDS011;27696;42.704;23.304;2023-06-22T11:31:11;11.25;;;9.00;;
42006;SDS011;27696;42.704;23.304;2023-06-22T11:33:37;9.77;;;8.88;;
42006;SDS011;27696;42.704;23.304;2023-06-22T11:36:02;10.13;;;8.80;;
42006;SDS011;27696;42.704;23.304;2023-06-22T11:38:27;9.80;;;8.90;;
42006;SDS011;27696;42.704;23.304;2023-06-22T11:40:53;10.45;;;9.40;;
42006;SDS011;27696;42.704;23.304;2023-06-22T11:43:18;9.43;;;8.50;;
42006;SDS011;27696;42.704;23.304;2023-06-22T11:45:44;10.45;;;9.52;;
42006;SDS011;27696;42.704;23.304;2023-06-22T11:48:09;10.20;;;9.20;;
42006;SDS011;27696;42.704;23.304;2023-06-22T11:50:34;12.57;;;9.65;;
42006;SDS011;27696;42.704;23.304;2023-06-22T11:53:01;10.52;;;9.55;;
42006;SDS011;27696;42.704;23.304;2023-06-22T11:55:27;10.02;;;9.02;;
42006;SDS011;27696;42.704;23.304;2023-06-22T11:57:56;8.65;;;7.85;;
42006;SDS011;27696;42.704;23.304;2023-06-22T12:00:25;10.18;;;8.50;;
42006;SDS011;27696;42.704;23.304;2023-06-22T12:02:50;10.95;;;7.70;;
42006;SDS011;27696;42.704;23.304;2023-06-22T12:05:17;9.45;;;8.40;;
42006;SDS011;27696;42.704;23.304;2023-06-22T12:07:49;9.10;;;8.32;;
42006;SDS011;27696;42.704;23.304;2023-06-22T12:10:15;10.50;;;8.25;;
42006;SDS011;27696;42.704;23.304;2023-06-22T12:12:41;9.45;;;8.55;;
42006;SDS011;27696;42.704;23.304;2023-06-22T12:15:06;9.60;;;8.80;;
42006;SDS011;27696;42.704;23.304;2023-06-22T12:17:33;11.02;;;8.55;;
42006;SDS011;27696;42.704;23.304;2023-06-22T12:19:59;10.80;;;9.73;;
42006;SDS011;27696;42.704;23.304;2023-06-22T12:22:24;11.75;;;9.93;;
42006;SDS011;27696;42.704;23.304;2023-06-22T12:24:50;11.32;;;10.23;;
42006;SDS011;27696;42.704;23.304;2023-06-22T12:27:16;15.80;;;10.43;;
42006;SDS011;27696;42.704;23.304;2023-06-22T12:29:43;12.57;;;10.65;;
42006;SDS011;27696;42.704;23.304;2023-06-22T12:32:10;11.70;;;10.65;;
42006;SDS011;27696;42.704;23.304;2023-06-22T12:34:38;12.10;;;10.90;;
42006;SDS011;27696;42.704;23.304;2023-06-22T12:37:04;10.85;;;9.75;;
42006;SDS011;27696;42.704;23.304;2023-06-22T12:39:30;11.30;;;9.10;;
42006;SDS011;27696;42.704;23.304;2023-06-22T12:41:56;19.20;;;10.30;;
42006;SDS011;27696;42.704;23.304;2023-06-22T12:44:21;12.20;;;9.10;;
42006;SDS011;27696;42.704;23.304;2023-06-22T12:46:47;10.25;;;8.38;;
42006;SDS011;27696;42.704;23.304;2023-06-22T12:49:12;12.20;;;8.32;;
42006;SDS011;27696;42.704;23.304;2023-06-22T12:51:41;9.55;;;6.97;;
42006;SDS011;27696;42.704;23.304;2023-06-22T12:54:07;14.00;;;6.30;;
42006;SDS011;27696;42.704;23.304;2023-06-22T12:56:33;8.85;;;6.70;;
42006;SDS011;27696;42.704;23.304;2023-06-22T12:58:58;11.73;;;6.85;;
42006;SDS011;27696;42.704;23.304;2023-06-22T13:01:26;9.95;;;6.82;;
42006;SDS011;27696;42.704;23.304;2023-06-22T13:03:52;13.95;;;7.15;;
42006;SDS011;27696;42.704;23.304;2023-06-22T13:06:17;12.32;;;7.38;;
42006;SDS011;27696;42.704;23.304;2023-06-22T13:08:43;10.38;;;6.93;;
42006;SDS011;27696;42.704;23.304;2023-06-22T13:11:08;15.95;;;7.47;;
42006;SDS011;27696;42.704;23.304;2023-06-22T13:13:34;15.70;;;7.65;;
42006;SDS011;27696;42.704;23.304;2023-06-22T13:15:59;13.57;;;8.23;;
42006;SDS011;27696;42.704;23.304;2023-06-22T13:18:25;13.30;;;7.40;;
42006;SDS011;27696;42.704;23.304;2023-06-22T13:20:50;11.93;;;7.97;;
42006;SDS011;27696;42.704;23.304;2023-06-22T13:23:15;14.40;;;8.30;;
42006;SDS011;27696;42.704;23.304;2023-06-22T13:25:41;13.75;;;10.00;;
42006;SDS011;27696;42.704;23.304;2023-06-22T13:28:06;13.82;;;9.05;;
42006;SDS011;27696;42.704;23.304;2023-06-22T13:30:32;13.63;;;8.75;;
42006;SDS011;27696;42.704;23.304;2023-06-22T13:32:57;9.30;;;8.35;;
42006;SDS011;27696;42.704;23.304;2023-06-22T13:35:23;15.45;;;9.30;;
42006;SDS011;27696;42.704;23.304;2023-06-22T13:37:48;14.98;;;9.20;;
42006;SDS011;27696;42.704;23.304;2023-06-22T13:40:14;14.20;;;10.30;;
42006;SDS011;27696;42.704;23.304;2023-06-22T13:42:39;15.68;;;10.23;;
42006;SDS011;27696;42.704;23.304;2023-06-22T13:45:05;12.32;;;11.05;;
42006;SDS011;27696;42.704;23.304;2023-06-22T13:47:32;13.98;;;10.52;;
42006;SDS011;27696;42.704;23.304;2023-06-22T13:49:57;12.05;;;10.65;;
42006;SDS011;27696;42.704;23.304;2023-06-22T13:52:23;12.57;;;11.20;;
42006;SDS011;27696;42.704;23.304;2023-06-22T13:54:49;15.93;;;9.55;;
42006;SDS011;27696;42.704;23.304;2023-06-22T13:57:14;12.05;;;9.88;;
42006;SDS011;27696;42.704;23.304;2023-06-22T13:59:40;14.23;;;9.90;;
42006;SDS011;27696;42.704;23.304;2023-06-22T14:02:05;14.13;;;11.13;;
42006;SDS011;27696;42.704;23.304;2023-06-22T14:04:31;18.52;;;9.80;;
42006;SDS011;27696;42.704;23.304;2023-06-22T14:06:56;10.90;;;9.80;;
42006;SDS011;27696;42.704;23.304;2023-06-22T14:09:22;14.50;;;9.50;;
42006;SDS011;27696;42.704;23.304;2023-06-22T14:11:47;13.48;;;9.77;;
42006;SDS011;27696;42.704;23.304;2023-06-22T14:14:13;11.65;;;8.77;;
42006;SDS011;27696;42.704;23.304;2023-06-22T14:16:38;15.38;;;9.45;;
42006;SDS011;27696;42.704;23.304;2023-06-22T14:19:03;12.43;;;9.48;;